createdAt,value
2022-07-29T00:01:37.607Z,56.71
2022-07-29T00:04:07.735Z,56.89
2022-07-29T00:06:37.590Z,57.17
2022-07-29T00:09:07.684Z,57.17
2022-07-29T00:11:37.661Z,57.27
2022-07-29T00:14:08.393Z,57.28
2022-07-29T00:16:37.800Z,57.41
2022-07-29T00:19:07.921Z,57.38
2022-07-29T00:21:37.810Z,57.38
2022-07-29T00:24:07.853Z,57.55
2022-07-29T00:26:38.013Z,57.58
2022-07-29T00:29:33.205Z,57.66
2022-07-29T00:31:37.595Z,57.69
2022-07-29T00:36:37.589Z,58.07
2022-07-29T00:39:07.554Z,58.02
2022-07-29T00:41:37.676Z,58.06
2022-07-29T00:44:07.560Z,58.03
2022-07-29T00:49:08.191Z,58.21
2022-07-29T00:51:38.079Z,58.20
2022-07-29T00:54:08.125Z,58.98
2022-07-29T00:56:37.696Z,58.48
2022-07-29T00:59:07.660Z,58.56
2022-07-29T01:01:37.639Z,58.39
2022-07-29T01:06:37.779Z,58.30
2022-07-29T01:09:08.688Z,58.61
2022-07-29T01:11:38.519Z,58.75
2022-07-29T01:14:09.320Z,58.71
2022-07-29T01:16:45.986Z,58.63
2022-07-29T01:19:22.522Z,58.99
2022-07-29T01:21:51.368Z,58.87
2022-07-29T01:24:20.899Z,58.87
2022-07-29T01:29:12.769Z,59.12
2022-07-29T01:31:58.950Z,58.98
2022-07-29T01:34:11.032Z,59.34
2022-07-29T01:36:45.458Z,59.44
2022-07-29T01:39:11.784Z,59.96
2022-07-29T01:44:15.247Z,60.05
2022-07-29T01:46:41.576Z,59.94
2022-07-29T01:49:11.251Z,60.11
2022-07-29T01:51:44.512Z,60.58
2022-07-29T01:54:13.381Z,60.37
2022-07-29T01:56:40.676Z,60.71
2022-07-29T01:59:09.299Z,60.76
2022-07-29T02:01:40.832Z,60.72
2022-07-29T02:04:10.969Z,60.64
2022-07-29T02:06:40.794Z,60.82
2022-07-29T02:11:38.776Z,60.81
2022-07-29T02:16:40.267Z,60.63
2022-07-29T02:19:09.899Z,61.04
2022-07-29T02:21:38.997Z,60.78
2022-07-29T02:24:11.988Z,60.72
2022-07-29T02:26:41.387Z,60.95
2022-07-29T02:29:09.849Z,61.15
2022-07-29T02:31:39.549Z,60.95
2022-07-29T02:34:10.472Z,61.15
2022-07-29T02:36:38.791Z,60.84
2022-07-29T02:44:11.068Z,60.91
2022-07-29T02:46:42.853Z,60.67
2022-07-29T02:49:12.004Z,60.66
2022-07-29T02:51:44.998Z,60.68
2022-07-29T02:54:10.362Z,60.61
2022-07-29T02:56:40.481Z,60.88
2022-07-29T02:59:11.545Z,60.84
2022-07-29T03:01:42.539Z,61.01
2022-07-29T03:04:10.666Z,61.03
2022-07-29T03:06:39.018Z,61.05
2022-07-29T03:09:12.970Z,61.36
2022-07-29T03:11:41.424Z,61.24
2022-07-29T03:14:07.910Z,61.69
2022-07-29T03:16:41.106Z,61.82
2022-07-29T03:19:08.147Z,61.69
2022-07-29T03:21:37.726Z,61.58
2022-07-29T03:24:10.528Z,61.17
2022-07-29T03:26:37.891Z,61.53
2022-07-29T03:29:07.597Z,61.72
2022-07-29T03:31:37.688Z,61.38
2022-07-29T03:36:37.691Z,61.25
2022-07-29T03:39:10.542Z,61.45
2022-07-29T03:41:39.415Z,61.26
2022-07-29T03:44:09.008Z,61.35
2022-07-29T03:51:38.969Z,61.43
2022-07-29T03:54:14.117Z,61.34
2022-07-29T03:59:08.369Z,61.35
2022-07-29T04:06:39.715Z,61.72
2022-07-29T04:09:09.906Z,61.86
2022-07-29T04:12:01.889Z,61.80
2022-07-29T04:16:37.835Z,61.74
2022-07-29T04:19:07.835Z,61.89
2022-07-29T04:21:38.323Z,62.08
2022-07-29T04:24:08.483Z,62.05
2022-07-29T04:26:37.700Z,61.89
2022-07-29T04:29:07.900Z,62.25
2022-07-29T04:31:38.017Z,62.38
2022-07-29T04:34:09.292Z,62.53
2022-07-29T04:36:37.729Z,62.49
2022-07-29T04:39:07.657Z,62.55
2022-07-29T04:41:37.822Z,62.55
2022-07-29T04:44:07.809Z,62.45
2022-07-29T04:46:37.795Z,62.35
2022-07-29T04:49:08.071Z,62.15
2022-07-29T04:51:37.820Z,62.38
2022-07-29T04:54:07.986Z,62.41
2022-07-29T04:56:37.758Z,62.39
2022-07-29T04:59:07.953Z,62.54
2022-07-29T05:01:37.733Z,62.37
2022-07-29T05:04:07.643Z,62.55
2022-07-29T05:06:37.715Z,62.25
2022-07-29T05:09:07.743Z,62.41
2022-07-29T05:11:37.709Z,62.22
2022-07-29T05:14:07.716Z,62.19
2022-07-29T05:16:39.434Z,62.13
2022-07-29T05:19:13.668Z,62.26
2022-07-29T05:21:37.770Z,62.27
2022-07-29T05:24:08.020Z,62.10
2022-07-29T05:26:37.855Z,62.21
2022-07-29T05:31:37.927Z,61.98
2022-07-29T05:34:07.716Z,61.97
2022-07-29T05:39:07.932Z,62.03
2022-07-29T05:41:37.824Z,61.91
2022-07-29T05:44:07.942Z,61.78
2022-07-29T05:46:37.834Z,61.79
2022-07-29T05:49:07.769Z,61.76
2022-07-29T05:51:37.962Z,61.77
2022-07-29T05:54:07.972Z,61.58
2022-07-29T05:56:37.742Z,61.46
2022-07-29T05:59:17.977Z,61.39
2022-07-29T06:01:39.419Z,61.43
2022-07-29T06:04:08.034Z,61.48
2022-07-29T06:06:37.940Z,61.51
2022-07-29T06:09:12.375Z,61.84
2022-07-29T06:11:37.710Z,61.78
2022-07-29T06:14:07.697Z,61.63
2022-07-29T06:16:37.842Z,61.76
2022-07-29T06:19:07.775Z,61.64
2022-07-29T06:21:42.186Z,61.44
2022-07-29T06:24:08.217Z,61.20
2022-07-29T06:26:39.958Z,60.97
2022-07-29T06:29:10.611Z,60.93
2022-07-29T06:31:38.432Z,60.72
2022-07-29T06:34:07.750Z,60.69
2022-07-29T06:36:38.445Z,60.42
2022-07-29T06:39:08.143Z,60.44
2022-07-29T06:41:38.140Z,60.57
2022-07-29T06:44:07.977Z,59.92
2022-07-29T06:46:37.954Z,60.13
2022-07-29T06:49:08.062Z,60.13
2022-07-29T06:51:37.755Z,59.65
2022-07-29T06:54:07.818Z,59.18
2022-07-29T06:56:39.254Z,58.71
2022-07-29T06:59:10.142Z,58.51
2022-07-29T07:01:39.369Z,57.48
2022-07-29T07:04:09.135Z,57.75
2022-07-29T07:06:37.953Z,57.43
2022-07-29T07:09:07.828Z,57.32
2022-07-29T07:11:37.776Z,56.83
2022-07-29T07:14:07.895Z,56.70
2022-07-29T07:16:37.769Z,55.82
2022-07-29T07:19:07.794Z,55.92
2022-07-29T07:21:37.823Z,55.31
2022-07-29T07:24:07.830Z,54.75
2022-07-29T07:26:39.511Z,54.37
2022-07-29T07:29:07.715Z,53.90
2022-07-29T07:31:38.025Z,52.48
2022-07-29T07:34:07.767Z,52.85
2022-07-29T07:36:37.995Z,52.22
2022-07-29T07:39:07.857Z,51.97
2022-07-29T07:41:37.717Z,51.51
2022-07-29T07:44:08.734Z,51.18
2022-07-29T07:46:37.830Z,51.02
2022-07-29T07:49:07.820Z,51.14
2022-07-29T07:51:38.578Z,51.25
2022-07-29T07:54:07.725Z,51.13
2022-07-29T07:56:37.880Z,51.25
2022-07-29T07:59:07.749Z,51.52
2022-07-29T08:01:48.451Z,51.76
2022-07-29T08:04:08.369Z,51.73
2022-07-29T08:06:37.868Z,52.02
2022-07-29T08:09:27.637Z,52.03
2022-07-29T08:11:38.008Z,51.67
2022-07-29T08:14:08.117Z,51.68
2022-07-29T08:16:38.085Z,51.33
2022-07-29T08:19:08.081Z,50.99
2022-07-29T08:21:38.519Z,51.45
2022-07-29T08:24:17.715Z,51.18
2022-07-29T08:26:37.732Z,50.66
2022-07-29T08:29:08.096Z,51.98
2022-07-29T08:31:38.445Z,51.84
2022-07-29T08:34:07.996Z,51.85
2022-07-29T08:36:38.265Z,50.80
2022-07-29T08:39:07.720Z,50.23
2022-07-29T08:41:38.135Z,49.45
2022-07-29T08:44:09.181Z,48.99
2022-07-29T08:46:38.923Z,48.54
2022-07-29T08:49:07.871Z,48.34
2022-07-29T08:51:49.606Z,47.60
2022-07-29T08:54:09.600Z,47.72
2022-07-29T08:56:39.298Z,47.46
2022-07-29T08:59:09.520Z,47.62
2022-07-29T09:01:42.541Z,47.71
2022-07-29T09:04:11.433Z,47.98
2022-07-29T09:06:43.630Z,48.26
2022-07-29T09:09:08.368Z,48.53
2022-07-29T09:14:10.994Z,48.63
2022-07-29T09:16:53.411Z,48.64
2022-07-29T09:19:21.970Z,48.76
2022-07-29T09:21:50.651Z,48.84
2022-07-29T09:24:09.596Z,49.02
2022-07-29T09:26:40.490Z,49.07
2022-07-29T09:29:09.960Z,49.29
2022-07-29T09:36:39.553Z,49.32
2022-07-29T09:44:08.001Z,49.43
2022-07-29T09:46:38.169Z,49.43
2022-07-29T09:51:39.035Z,49.52
2022-07-29T09:54:26.206Z,49.51
2022-07-29T09:56:40.503Z,49.56
2022-07-29T09:59:08.887Z,49.59
2022-07-29T10:01:37.911Z,49.49
2022-07-29T10:04:07.995Z,49.49
2022-07-29T10:07:03.974Z,49.45
2022-07-29T10:09:08.739Z,49.58
2022-07-29T10:11:49.419Z,49.53
2022-07-29T10:14:07.906Z,49.56
2022-07-29T10:16:37.964Z,49.80
2022-07-29T10:19:07.915Z,50.01
2022-07-29T10:21:39.715Z,50.26
2022-07-29T10:24:15.122Z,50.22
2022-07-29T10:26:40.894Z,50.20
2022-07-29T10:29:08.004Z,50.25
2022-07-29T10:31:47.393Z,50.33
2022-07-29T10:34:17.944Z,50.36
2022-07-29T10:36:54.080Z,50.43
2022-07-29T10:39:22.213Z,50.49
2022-07-29T10:41:56.424Z,50.46
2022-07-29T10:44:17.341Z,50.37
2022-07-29T10:46:39.754Z,50.25
2022-07-29T10:49:10.626Z,50.06
2022-07-29T10:51:51.536Z,49.78
2022-07-29T10:54:08.011Z,49.58
2022-07-29T10:56:37.925Z,49.47
2022-07-29T10:59:26.067Z,49.55
2022-07-29T11:04:08.203Z,49.39
2022-07-29T11:06:57.593Z,49.28
2022-07-29T11:09:16.608Z,49.38
2022-07-29T11:11:40.508Z,49.27
2022-07-29T11:14:10.464Z,49.19
2022-07-29T11:19:21.607Z,49.49
2022-07-29T11:21:53.647Z,49.49
2022-07-29T11:24:28.618Z,49.47
2022-07-29T11:26:37.864Z,49.42
2022-07-29T11:29:18.749Z,49.55
2022-07-29T11:31:41.689Z,49.59
2022-07-29T11:36:57.966Z,49.75
2022-07-29T11:39:25.482Z,49.80
2022-07-29T11:41:39.065Z,49.83
2022-07-29T11:46:48.597Z,49.82
2022-07-29T11:49:09.863Z,49.90
2022-07-29T11:51:48.302Z,49.62
2022-07-29T11:54:13.697Z,49.59
2022-07-29T11:56:43.588Z,49.80
2022-07-29T11:59:09.236Z,50.08
2022-07-29T12:02:12.121Z,49.98
2022-07-29T12:06:38.050Z,50.06
2022-07-29T12:07:03.361Z,49.79
2022-07-29T12:09:08.879Z,49.96
2022-07-29T12:11:37.998Z,49.97
2022-07-29T12:14:07.892Z,49.94
2022-07-29T12:16:38.086Z,49.86
2022-07-29T12:19:08.079Z,50.06
2022-07-29T12:21:49.442Z,50.05
2022-07-29T12:24:08.769Z,50.13
2022-07-29T12:26:49.708Z,50.24
2022-07-29T12:29:20.459Z,50.38
2022-07-29T12:31:43.517Z,50.04
2022-07-29T12:34:08.101Z,50.01
2022-07-29T12:36:38.357Z,50.17
2022-07-29T12:39:09.219Z,50.40
2022-07-29T12:41:38.657Z,50.05
2022-07-29T12:44:08.148Z,49.78
2022-07-29T12:46:37.960Z,49.20
2022-07-29T12:49:08.162Z,48.37
2022-07-29T12:54:10.489Z,46.55
2022-07-29T12:56:42.583Z,46.97
2022-07-29T12:59:12.920Z,46.58
2022-07-29T13:01:38.159Z,46.38
2022-07-29T13:04:07.983Z,46.59
2022-07-29T13:06:41.244Z,46.66
2022-07-29T13:09:10.711Z,46.67
2022-07-29T13:11:42.184Z,46.38
2022-07-29T13:14:09.511Z,46.36
2022-07-29T13:16:57.915Z,46.26
2022-07-29T13:19:11.100Z,46.26
2022-07-29T13:21:39.467Z,46.16
2022-07-29T13:24:08.631Z,46.03
2022-07-29T13:26:40.803Z,46.09
2022-07-29T13:29:07.991Z,46.28
2022-07-29T13:31:37.899Z,46.11
2022-07-29T13:34:07.925Z,46.17
2022-07-29T13:36:41.356Z,46.22
2022-07-29T13:39:07.951Z,46.37
2022-07-29T13:41:37.990Z,46.01
2022-07-29T13:44:07.901Z,45.72
2022-07-29T13:46:39.560Z,45.65
2022-07-29T13:49:07.947Z,45.72
2022-07-29T13:51:38.162Z,45.71
2022-07-29T13:54:08.040Z,45.61
2022-07-29T13:56:37.921Z,45.61
2022-07-29T13:59:07.942Z,45.51
2022-07-29T14:01:41.403Z,45.30
2022-07-29T14:04:08.777Z,44.40
2022-07-29T14:06:38.479Z,43.76
2022-07-29T14:09:08.590Z,44.05
2022-07-29T14:11:38.400Z,44.25
2022-07-29T14:16:42.424Z,44.31
2022-07-29T14:19:08.156Z,44.18
2022-07-29T14:21:38.882Z,44.13
2022-07-29T14:24:17.045Z,44.01
2022-07-29T14:26:38.124Z,44.14
2022-07-29T14:29:08.093Z,44.31
2022-07-29T14:31:38.160Z,43.84
2022-07-29T14:34:07.924Z,43.79
2022-07-29T14:36:37.942Z,43.60
2022-07-29T14:39:07.904Z,43.83
2022-07-29T14:41:38.124Z,43.16
2022-07-29T14:44:07.972Z,43.03
2022-07-29T14:46:38.180Z,43.11
2022-07-29T14:49:08.104Z,43.03
2022-07-29T14:54:08.242Z,43.32
2022-07-29T14:56:37.957Z,42.98
2022-07-29T15:01:38.161Z,42.86
2022-07-29T15:04:07.926Z,42.77
2022-07-29T15:09:08.007Z,42.83
2022-07-29T15:11:38.712Z,42.66
2022-07-29T15:19:08.436Z,43.11
2022-07-29T15:21:41.473Z,43.26
2022-07-29T15:24:07.991Z,43.16
2022-07-29T15:26:37.987Z,43.12
2022-07-29T15:29:08.079Z,42.99
2022-07-29T15:31:38.590Z,42.61
2022-07-29T15:34:08.247Z,42.59
2022-07-29T15:36:51.932Z,42.40
2022-07-29T15:39:09.092Z,42.49
2022-07-29T15:41:37.980Z,42.68
2022-07-29T15:44:08.220Z,42.76
2022-07-29T15:46:47.876Z,42.65
2022-07-29T15:49:08.169Z,42.94
2022-07-29T15:51:38.094Z,42.83
2022-07-29T15:54:08.000Z,43.06
2022-07-29T15:56:38.627Z,43.13
2022-07-29T15:59:07.952Z,43.23
2022-07-29T16:01:37.977Z,42.89
2022-07-29T16:04:08.278Z,42.96
2022-07-29T16:06:38.246Z,42.64
2022-07-29T16:09:08.431Z,42.81
2022-07-29T16:11:38.100Z,42.60
2022-07-29T16:16:38.565Z,42.20
2022-07-29T16:19:08.597Z,42.10
2022-07-29T16:21:38.400Z,42.13
2022-07-29T16:24:08.277Z,42.12
2022-07-29T16:26:38.146Z,42.07
2022-07-29T16:29:08.023Z,42.15
2022-07-29T16:34:08.210Z,42.03
2022-07-29T16:36:37.977Z,42.15
2022-07-29T16:39:09.933Z,42.27
2022-07-29T16:41:38.090Z,42.45
2022-07-29T16:44:08.408Z,42.58
2022-07-29T16:46:39.097Z,42.49
2022-07-29T16:49:08.218Z,42.63
2022-07-29T16:51:38.139Z,42.65
2022-07-29T16:54:09.793Z,42.64
2022-07-29T16:59:08.057Z,42.63
2022-07-29T17:01:38.270Z,42.83
2022-07-29T17:04:08.248Z,43.06
2022-07-29T17:06:39.615Z,43.31
2022-07-29T17:09:09.930Z,43.72
2022-07-29T17:11:53.989Z,43.99
2022-07-29T17:14:09.051Z,44.35
2022-07-29T17:16:38.078Z,44.89
2022-07-29T17:19:08.176Z,45.04
2022-07-29T17:21:38.047Z,45.52
2022-07-29T17:24:08.082Z,45.70
2022-07-29T17:26:38.889Z,46.38
2022-07-29T17:29:08.061Z,46.84
2022-07-29T17:31:38.135Z,47.23
2022-07-29T17:34:08.860Z,47.43
2022-07-29T17:36:38.213Z,47.77
2022-07-29T17:39:10.290Z,47.90
2022-07-29T17:41:39.947Z,48.06
2022-07-29T17:44:08.454Z,48.43
2022-07-29T17:46:39.382Z,48.56
2022-07-29T17:49:08.297Z,48.87
2022-07-29T17:51:38.383Z,49.05
2022-07-29T17:54:08.163Z,49.13
2022-07-29T17:56:38.200Z,49.54
2022-07-29T17:59:09.212Z,49.90
2022-07-29T18:01:40.271Z,50.38
2022-07-29T18:04:09.037Z,50.30
2022-07-29T18:06:38.057Z,50.28
2022-07-29T18:09:08.069Z,50.45
2022-07-29T18:11:38.379Z,50.51
2022-07-29T18:14:08.110Z,50.72
2022-07-29T18:16:38.754Z,50.89
2022-07-29T18:19:08.054Z,51.06
2022-07-29T18:21:51.211Z,51.05
2022-07-29T18:24:08.476Z,51.16
2022-07-29T18:26:38.167Z,51.17
2022-07-29T18:29:08.101Z,51.33
2022-07-29T18:31:40.144Z,51.40
2022-07-29T18:34:08.103Z,51.53
2022-07-29T18:36:38.263Z,51.64
2022-07-29T18:39:08.134Z,51.78
2022-07-29T18:41:38.581Z,51.86
2022-07-29T18:44:08.755Z,51.90
2022-07-29T18:46:38.267Z,52.20
2022-07-29T18:49:08.258Z,52.31
2022-07-29T18:51:38.222Z,52.35
2022-07-29T18:54:09.149Z,52.77
2022-07-29T18:56:38.145Z,52.86
2022-07-29T18:59:09.445Z,52.95
2022-07-29T19:01:38.203Z,53.14
2022-07-29T19:04:08.483Z,54.26
2022-07-29T19:06:39.827Z,54.12
2022-07-29T19:09:09.002Z,53.92
2022-07-29T19:11:38.439Z,53.91
2022-07-29T19:14:08.237Z,53.97
2022-07-29T19:16:38.170Z,54.53
2022-07-29T19:19:08.219Z,55.01
2022-07-29T19:21:38.118Z,55.00
2022-07-29T19:24:14.992Z,55.21
2022-07-29T19:26:43.046Z,55.24
2022-07-29T19:29:08.450Z,55.58
2022-07-29T19:31:38.513Z,55.85
2022-07-29T19:34:08.504Z,55.81
2022-07-29T19:36:38.137Z,55.96
2022-07-29T19:39:08.640Z,55.92
2022-07-29T19:41:38.199Z,56.14
2022-07-29T19:44:08.103Z,56.24
2022-07-29T19:46:38.622Z,56.59
2022-07-29T19:49:09.203Z,56.69
2022-07-29T19:51:38.654Z,56.65
2022-07-29T19:54:08.096Z,56.90
2022-07-29T19:56:39.145Z,57.07
2022-07-29T19:59:08.081Z,57.34
2022-07-29T20:01:38.380Z,57.23
2022-07-29T20:04:08.315Z,57.31
2022-07-29T20:06:38.072Z,57.47
2022-07-29T20:09:08.192Z,57.61
2022-07-29T20:11:38.872Z,57.71
2022-07-29T20:14:08.128Z,57.72
2022-07-29T20:16:38.192Z,57.97
2022-07-29T20:19:08.239Z,58.17
2022-07-29T20:21:38.198Z,58.64
2022-07-29T20:24:09.437Z,58.87
2022-07-29T20:26:38.131Z,58.87
2022-07-29T20:29:08.283Z,58.89
2022-07-29T20:31:38.298Z,59.14
2022-07-29T20:34:09.059Z,59.48
2022-07-29T20:36:38.263Z,59.61
2022-07-29T20:39:08.113Z,59.89
2022-07-29T20:41:38.186Z,59.90
2022-07-29T20:44:08.409Z,60.01
2022-07-29T20:46:38.356Z,60.14
2022-07-29T20:49:08.351Z,59.92
2022-07-29T20:51:43.477Z,59.86
2022-07-29T20:54:08.858Z,60.25
2022-07-29T20:56:38.174Z,60.49
2022-07-29T20:59:08.491Z,60.33
2022-07-29T21:01:38.196Z,60.23
2022-07-29T21:04:08.232Z,60.03
2022-07-29T21:06:38.183Z,60.10
2022-07-29T21:09:08.167Z,60.34
2022-07-29T21:11:43.419Z,60.38
2022-07-29T21:14:08.192Z,60.13
2022-07-29T21:16:38.108Z,60.36
2022-07-29T21:19:08.189Z,60.23
2022-07-29T21:21:38.147Z,60.39
2022-07-29T21:26:38.280Z,60.51
2022-07-29T21:29:08.260Z,60.65
2022-07-29T21:31:39.938Z,60.92
2022-07-29T21:34:08.358Z,60.93
2022-07-29T21:36:48.770Z,61.12
2022-07-29T21:39:08.232Z,61.22
2022-07-29T21:41:38.251Z,61.20
2022-07-29T21:44:08.124Z,61.38
2022-07-29T21:46:38.217Z,61.40
2022-07-29T21:49:08.216Z,61.43
2022-07-29T21:51:38.327Z,61.50
2022-07-29T21:54:08.267Z,61.36
2022-07-29T21:56:38.194Z,61.42
2022-07-29T21:59:09.852Z,61.45
2022-07-29T22:01:38.974Z,61.48
2022-07-29T22:04:08.554Z,61.57
2022-07-29T22:06:38.464Z,61.63
2022-07-29T22:09:08.190Z,61.75
2022-07-29T22:11:38.165Z,61.73
2022-07-29T22:14:08.455Z,61.73
2022-07-29T22:16:38.400Z,61.46
2022-07-29T22:19:08.136Z,61.68
2022-07-29T22:21:38.721Z,61.76
2022-07-29T22:24:09.267Z,61.76
2022-07-29T22:26:38.263Z,61.86
2022-07-29T22:29:08.451Z,61.86
2022-07-29T22:31:38.231Z,61.89
2022-07-29T22:34:11.720Z,61.95
2022-07-29T22:36:38.444Z,62.04
2022-07-29T22:39:08.351Z,61.99
2022-07-29T22:41:38.540Z,61.93
2022-07-29T22:44:08.231Z,61.96
2022-07-29T22:46:38.332Z,62.09
2022-07-29T22:49:08.316Z,62.06
2022-07-29T22:51:38.199Z,62.04
2022-07-29T22:54:08.422Z,61.99
2022-07-29T22:56:38.274Z,62.01
2022-07-29T22:59:08.449Z,61.88
2022-07-29T23:01:38.382Z,61.90
2022-07-29T23:04:08.392Z,62.25
2022-07-29T23:06:38.394Z,62.21
2022-07-29T23:09:08.156Z,62.29
2022-07-29T23:11:38.198Z,62.15
2022-07-29T23:14:09.611Z,62.48
2022-07-29T23:16:38.348Z,62.49
2022-07-29T23:19:08.293Z,62.48
2022-07-29T23:21:38.330Z,62.82
2022-07-29T23:24:08.504Z,63.14
2022-07-29T23:26:38.304Z,63.11
2022-07-29T23:29:08.258Z,62.96
2022-07-29T23:31:41.818Z,63.07
2022-07-29T23:34:08.312Z,62.90
2022-07-29T23:36:38.475Z,62.70
2022-07-29T23:39:10.245Z,62.84
2022-07-29T23:41:38.510Z,63.08
2022-07-29T23:44:08.497Z,63.25
2022-07-29T23:46:38.307Z,63.21
2022-07-29T23:49:08.392Z,63.30
2022-07-29T23:51:38.207Z,63.20
2022-07-29T23:54:08.206Z,63.33
2022-07-29T23:56:38.378Z,63.30
2022-07-29T23:59:08.170Z,63.33
